createdAt,value
2018-02-01T00:01:57.352Z,45.10
2018-02-01T00:04:29.908Z,45.10
2018-02-01T00:07:02.479Z,45.10
2018-02-01T00:09:35.044Z,45.10
2018-02-01T00:12:08.331Z,45.20
2018-02-01T00:14:40.732Z,45.10
2018-02-01T00:17:13.232Z,45.10
2018-02-01T00:19:46.577Z,45.20
2018-02-01T00:22:19.080Z,45.10
2018-02-01T00:24:52.372Z,45.20
2018-02-01T00:27:25.638Z,45.20
2018-02-01T00:29:58.132Z,45.10
2018-02-01T00:32:30.700Z,45.20
2018-02-01T00:35:03.218Z,45.20
2018-02-01T00:37:35.766Z,45.20
2018-02-01T00:40:08.267Z,45.10
2018-02-01T00:42:40.724Z,45.40
2018-02-01T00:45:13.304Z,45.20
2018-02-01T00:47:46.539Z,45.50
2018-02-01T00:50:19.103Z,45.10
2018-02-01T00:52:51.623Z,45.10
2018-02-01T00:55:24.159Z,45.20
2018-02-01T00:57:56.663Z,45.20
2018-02-01T01:00:29.099Z,45.20
2018-02-01T01:03:01.680Z,45.20
2018-02-01T01:05:34.331Z,45.20
2018-02-01T01:08:07.675Z,45.20
2018-02-01T01:10:40.220Z,45.20
2018-02-01T01:13:12.696Z,45.20
2018-02-01T01:15:45.239Z,45.10
2018-02-01T01:18:17.797Z,45.20
2018-02-01T01:20:50.376Z,45.20
2018-02-01T01:23:22.882Z,45.30
2018-02-01T01:25:55.443Z,45.10
2018-02-01T01:28:27.968Z,45.10
2018-02-01T01:31:00.592Z,45.10
2018-02-01T01:33:33.144Z,45.20
2018-02-01T01:36:05.608Z,45.10
2018-02-01T01:38:38.100Z,45.10
2018-02-01T01:41:10.583Z,45.10
2018-02-01T01:43:43.125Z,45.10
2018-02-01T01:46:16.411Z,45.20
2018-02-01T01:48:48.949Z,45.10
2018-02-01T01:51:21.532Z,45.10
2018-02-01T01:53:54.748Z,45.20
2018-02-01T01:56:27.300Z,45.10
2018-02-01T01:58:59.817Z,45.10
2018-02-01T02:01:32.400Z,45.10
2018-02-01T02:04:05.025Z,45.20
2018-02-01T02:06:37.424Z,45.20
2018-02-01T02:09:09.828Z,45.20
2018-02-01T02:11:43.103Z,45.10
2018-02-01T02:14:15.583Z,45.10
2018-02-01T02:16:48.148Z,45.10
2018-02-01T02:19:20.643Z,45.10
2018-02-01T02:21:53.199Z,45.10
2018-02-01T02:24:25.649Z,45.10
2018-02-01T02:26:58.960Z,45.60
2018-02-01T02:29:31.555Z,45.10
2018-02-01T02:32:04.156Z,45.10
2018-02-01T02:34:36.667Z,45.10
2018-02-01T02:37:09.312Z,45.10
2018-02-01T02:39:41.835Z,45.60
2018-02-01T02:42:14.348Z,45.10
2018-02-01T02:44:46.940Z,45.10
2018-02-01T02:47:20.298Z,45.20
2018-02-01T02:49:52.820Z,45.10
2018-02-01T02:52:26.153Z,45.20
2018-02-01T02:54:59.440Z,45.10
2018-02-01T02:57:31.951Z,45.10
2018-02-01T03:00:04.513Z,45.10
2018-02-01T03:02:37.078Z,45.10
2018-02-01T03:05:09.577Z,45.10
2018-02-01T03:07:42.105Z,44.50
2018-02-01T03:10:15.404Z,45.10
2018-02-01T03:12:47.859Z,45.00
2018-02-01T03:15:21.143Z,45.10
2018-02-01T03:17:53.539Z,45.00
2018-02-01T03:20:26.037Z,45.10
2018-02-01T03:22:58.524Z,45.10
2018-02-01T03:25:31.768Z,45.10
2018-02-01T03:28:04.127Z,45.10
2018-02-01T03:30:36.591Z,45.10
2018-02-01T03:33:09.156Z,45.10
2018-02-01T03:35:41.687Z,45.10
2018-02-01T03:38:14.274Z,45.10
2018-02-01T03:40:46.744Z,45.00
2018-02-01T03:43:19.227Z,45.10
2018-02-01T03:45:51.732Z,45.10
2018-02-01T03:48:24.333Z,45.10
2018-02-01T03:50:56.952Z,45.10
2018-02-01T03:53:30.332Z,45.10
2018-02-01T03:56:03.588Z,45.10
2018-02-01T03:58:36.088Z,45.00
2018-02-01T04:01:08.675Z,45.10
2018-02-01T04:03:41.056Z,45.10
2018-02-01T04:06:13.620Z,45.10
2018-02-01T04:08:46.112Z,45.10
2018-02-01T04:11:18.624Z,45.10
2018-02-01T04:13:51.955Z,45.10
2018-02-01T04:16:25.316Z,45.10
2018-02-01T04:18:57.844Z,45.10
2018-02-01T04:21:30.413Z,45.10
2018-02-01T04:24:03.009Z,45.10
2018-02-01T04:26:35.528Z,45.00
2018-02-01T04:29:08.087Z,45.10
2018-02-01T04:31:40.604Z,45.10
2018-02-01T04:34:13.984Z,45.00
2018-02-01T04:36:47.269Z,45.60
2018-02-01T04:39:19.772Z,45.00
2018-02-01T04:41:52.320Z,45.10
2018-02-01T04:44:24.876Z,45.10
2018-02-01T04:46:57.383Z,45.10
2018-02-01T04:49:30.025Z,45.10
2018-02-01T04:52:03.228Z,45.00
2018-02-01T04:54:36.549Z,45.10
2018-02-01T04:57:09.816Z,45.10
2018-02-01T04:59:42.308Z,44.90
2018-02-01T05:02:14.899Z,45.10
2018-02-01T05:04:48.995Z,45.00
2018-02-01T05:07:21.521Z,45.00
2018-02-01T05:09:53.996Z,45.10
2018-02-01T05:12:27.309Z,45.00
2018-02-01T05:14:59.704Z,44.90
2018-02-01T05:17:32.301Z,45.10
2018-02-01T05:20:04.896Z,45.10
2018-02-01T05:22:38.222Z,44.90
2018-02-01T05:25:11.544Z,45.00
2018-02-01T05:27:44.808Z,45.10
2018-02-01T05:30:18.133Z,45.00
2018-02-01T05:32:50.579Z,44.90
2018-02-01T05:35:23.209Z,45.00
2018-02-01T05:37:55.636Z,45.00
2018-02-01T05:40:28.939Z,45.00
2018-02-01T05:43:02.225Z,45.00
2018-02-01T05:45:34.808Z,45.00
2018-02-01T05:48:07.299Z,45.00
2018-02-01T05:50:39.677Z,45.00
2018-02-01T05:53:13.037Z,45.00
2018-02-01T05:55:45.529Z,45.00
2018-02-01T05:58:18.043Z,45.00
2018-02-01T06:00:50.396Z,45.00
2018-02-01T06:03:23.643Z,45.00
2018-02-01T06:05:56.957Z,45.00
2018-02-01T06:08:30.240Z,45.00
2018-02-01T06:11:02.825Z,45.00
2018-02-01T06:13:35.307Z,45.00
2018-02-01T06:16:07.848Z,44.90
2018-02-01T06:18:41.144Z,45.00
2018-02-01T06:21:13.712Z,45.00
2018-02-01T06:23:46.207Z,45.00
2018-02-01T06:26:18.720Z,44.90
2018-02-01T06:28:51.168Z,45.00
2018-02-01T06:31:23.668Z,44.90
2018-02-01T06:33:56.174Z,44.90
2018-02-01T06:36:28.724Z,44.90
2018-02-01T06:39:01.264Z,44.90
2018-02-01T06:41:33.780Z,44.90
2018-02-01T06:44:07.012Z,45.00
2018-02-01T06:46:40.424Z,45.00
2018-02-01T06:49:13.019Z,45.00
2018-02-01T06:51:45.467Z,45.00
2018-02-01T06:54:17.808Z,44.90
2018-02-01T06:56:50.429Z,44.90
2018-02-01T06:59:23.784Z,44.90
2018-02-01T07:01:57.096Z,44.90
2018-02-01T07:04:29.471Z,44.90
2018-02-01T07:07:02.287Z,45.00
2018-02-01T07:09:34.904Z,45.00
2018-02-01T07:12:07.577Z,45.00
2018-02-01T07:14:40.880Z,45.00
2018-02-01T07:17:14.428Z,45.00
2018-02-01T07:19:47.244Z,45.00
2018-02-01T07:22:20.572Z,44.90
2018-02-01T07:24:53.277Z,44.90
2018-02-01T07:27:25.963Z,44.90
2018-02-01T07:29:58.711Z,44.90
2018-02-01T07:32:31.332Z,44.90
2018-02-01T07:35:04.034Z,44.90
2018-02-01T07:37:41.985Z,44.90
2018-02-01T07:40:15.583Z,44.90
2018-02-01T07:42:48.972Z,44.90
2018-02-01T07:45:21.856Z,44.90
2018-02-01T07:47:55.584Z,44.90
2018-02-01T07:50:28.811Z,44.90
2018-02-01T07:53:01.554Z,44.90
2018-02-01T07:55:34.191Z,44.90
2018-02-01T07:58:06.977Z,44.90
2018-02-01T08:00:40.109Z,44.90
2018-02-01T08:03:12.676Z,44.90
2018-02-01T08:05:45.430Z,45.10
2018-02-01T08:08:18.052Z,44.90
2018-02-01T08:10:50.796Z,45.00
2018-02-01T08:13:23.440Z,44.90
2018-02-01T08:15:56.154Z,44.80
2018-02-01T08:18:28.813Z,44.80
2018-02-01T08:21:01.623Z,44.80
2018-02-01T08:23:34.496Z,44.80
2018-02-01T08:26:08.084Z,44.80
2018-02-01T08:28:40.946Z,44.80
2018-02-01T08:31:13.696Z,44.80
2018-02-01T08:33:47.083Z,44.80
2018-02-01T08:36:19.943Z,44.80
2018-02-01T08:38:52.824Z,44.80
2018-02-01T08:41:25.348Z,44.80
2018-02-01T08:43:58.159Z,44.80
2018-02-01T08:46:30.733Z,44.80
2018-02-01T08:49:03.522Z,44.80
2018-02-01T08:51:36.965Z,44.80
2018-02-01T08:54:09.616Z,44.90
2018-02-01T08:56:42.480Z,44.80
2018-02-01T08:59:15.755Z,44.80
2018-02-01T09:01:48.345Z,44.80
2018-02-01T09:04:20.797Z,44.80
2018-02-01T09:06:53.621Z,44.80
2018-02-01T09:09:25.941Z,44.80
2018-02-01T09:11:59.320Z,45.00
2018-02-01T09:14:32.045Z,44.80
2018-02-01T09:17:04.622Z,44.30
2018-02-01T09:19:37.389Z,44.70
2018-02-01T09:22:10.067Z,44.70
2018-02-01T09:24:43.693Z,44.70
2018-02-01T09:27:16.305Z,44.70
2018-02-01T09:29:49.843Z,44.70
2018-02-01T09:32:22.620Z,44.70
2018-02-01T09:34:55.436Z,44.70
2018-02-01T09:37:28.187Z,44.70
2018-02-01T09:40:01.536Z,44.80
2018-02-01T09:42:33.995Z,44.70
2018-02-01T09:45:06.503Z,44.70
2018-02-01T09:47:39.028Z,44.80
2018-02-01T09:50:11.492Z,44.70
2018-02-01T09:52:43.992Z,44.70
2018-02-01T09:55:16.548Z,44.70
2018-02-01T09:57:49.796Z,44.70
2018-02-01T10:00:22.304Z,44.60
2018-02-01T10:02:54.836Z,44.70
2018-02-01T10:05:27.460Z,44.70
2018-02-01T10:08:00.017Z,44.70
2018-02-01T10:10:32.484Z,44.70
2018-02-01T10:13:05.003Z,44.60
2018-02-01T10:15:37.576Z,44.60
2018-02-01T10:18:10.092Z,44.60
2018-02-01T10:20:43.383Z,45.10
2018-02-01T10:23:16.653Z,45.40
2018-02-01T10:25:49.220Z,44.60
2018-02-01T10:28:21.696Z,44.70
2018-02-01T10:30:54.188Z,44.60
2018-02-01T10:33:27.468Z,45.20
2018-02-01T10:36:00.015Z,44.60
2018-02-01T10:38:32.512Z,44.60
2018-02-01T10:41:05.048Z,44.60
2018-02-01T10:43:37.603Z,44.60
2018-02-01T10:46:10.193Z,44.60
2018-02-01T10:48:42.747Z,44.60
2018-02-01T10:51:15.220Z,44.60
2018-02-01T10:53:47.792Z,44.60
2018-02-01T10:56:21.092Z,44.50
2018-02-01T10:58:54.359Z,44.50
2018-02-01T11:01:26.664Z,44.50
2018-02-01T11:04:00.027Z,44.50
2018-02-01T11:06:32.492Z,44.50
2018-02-01T11:09:05.012Z,44.50
2018-02-01T11:11:37.592Z,44.80
2018-02-01T11:14:10.125Z,44.50
2018-02-01T11:16:42.655Z,44.40
2018-02-01T11:19:15.179Z,45.10
2018-02-01T11:21:47.772Z,44.40
2018-02-01T11:24:20.916Z,44.40
2018-02-01T11:26:54.140Z,44.50
2018-02-01T11:29:27.412Z,45.00
2018-02-01T11:32:00.049Z,44.40
2018-02-01T11:34:32.606Z,45.10
2018-02-01T11:37:05.193Z,44.40
2018-02-01T11:39:37.792Z,44.40
2018-02-01T11:42:10.252Z,44.40
2018-02-01T11:44:42.672Z,44.40
2018-02-01T11:47:16.088Z,44.50
2018-02-01T11:49:48.513Z,44.40
2018-02-01T11:52:21.032Z,44.40
2018-02-01T11:54:54.309Z,44.40
2018-02-01T11:57:26.776Z,44.40
2018-02-01T12:00:00.066Z,44.60
2018-02-01T12:02:32.704Z,44.40
2018-02-01T12:05:05.952Z,44.40
2018-02-01T12:07:38.411Z,44.40
2018-02-01T12:10:10.869Z,44.40
2018-02-01T12:12:43.404Z,44.40
2018-02-01T12:15:15.968Z,44.30
2018-02-01T12:17:49.244Z,44.40
2018-02-01T12:20:22.515Z,44.40
2018-02-01T12:22:54.836Z,44.30
2018-02-01T12:25:27.356Z,44.30
2018-02-01T12:28:00.025Z,44.30
2018-02-01T12:30:33.364Z,44.30
2018-02-01T12:33:06.655Z,44.40
2018-02-01T12:35:39.085Z,44.30
2018-02-01T12:38:12.411Z,44.30
2018-02-01T12:40:44.785Z,44.30
2018-02-01T12:43:17.416Z,44.30
2018-02-01T12:45:50.734Z,44.30
2018-02-01T12:48:23.256Z,44.20
2018-02-01T12:50:56.591Z,44.20
2018-02-01T12:53:29.206Z,44.20
2018-02-01T12:56:02.352Z,44.20
2018-02-01T12:58:34.740Z,44.20
2018-02-01T13:01:07.191Z,44.20
2018-02-01T13:03:40.520Z,44.30
2018-02-01T13:06:12.975Z,44.20
2018-02-01T13:08:45.608Z,44.20
2018-02-01T13:11:18.060Z,44.20
2018-02-01T13:13:50.620Z,44.30
2018-02-01T13:16:23.896Z,44.30
2018-02-01T13:18:56.429Z,44.20
2018-02-01T13:21:28.867Z,44.20
2018-02-01T13:24:01.416Z,44.20
2018-02-01T13:26:34.700Z,44.30
2018-02-01T13:29:07.221Z,44.20
2018-02-01T13:31:39.664Z,44.20
2018-02-01T13:34:12.228Z,44.20
2018-02-01T13:36:45.527Z,44.30
2018-02-01T13:39:18.177Z,44.20
2018-02-01T13:41:52.047Z,44.20
2018-02-01T13:44:24.702Z,44.10
2018-02-01T13:46:57.140Z,44.20
2018-02-01T13:49:30.383Z,44.10
2018-02-01T13:52:02.868Z,44.10
2018-02-01T13:54:36.224Z,44.20
2018-02-01T13:57:08.688Z,44.20
2018-02-01T13:59:41.290Z,44.20
2018-02-01T14:02:13.763Z,44.10
2018-02-01T14:04:47.144Z,44.30
2018-02-01T14:07:19.628Z,44.10
2018-02-01T14:09:52.209Z,44.10
2018-02-01T14:12:24.731Z,44.10
2018-02-01T14:14:58.068Z,44.30
2018-02-01T14:17:30.591Z,44.10
2018-02-01T14:20:03.220Z,44.20
2018-02-01T14:22:35.744Z,44.20
2018-02-01T14:25:08.308Z,44.20
2018-02-01T14:27:41.556Z,44.20
2018-02-01T14:30:14.060Z,44.10
2018-02-01T14:32:47.328Z,44.20
2018-02-01T14:35:19.868Z,44.10
2018-02-01T14:37:52.518Z,44.10
2018-02-01T14:40:24.971Z,44.10
2018-02-01T14:42:58.300Z,44.10
2018-02-01T14:45:30.783Z,44.70
2018-02-01T14:48:03.315Z,44.10
2018-02-01T14:50:35.891Z,44.20
2018-02-01T14:53:09.148Z,44.20
2018-02-01T14:55:41.732Z,44.10
2018-02-01T14:58:14.205Z,44.20
2018-02-01T15:00:46.713Z,44.20
2018-02-01T15:03:19.235Z,44.20
2018-02-01T15:05:51.944Z,44.20
2018-02-01T15:08:24.396Z,44.20
2018-02-01T15:10:57.804Z,44.20
2018-02-01T15:13:31.076Z,44.20
2018-02-01T15:16:03.560Z,44.10
2018-02-01T15:18:36.056Z,44.10
2018-02-01T15:21:08.426Z,44.20
2018-02-01T15:23:40.904Z,44.20
2018-02-01T15:26:13.460Z,44.20
2018-02-01T15:28:46.049Z,44.10
2018-02-01T15:31:18.416Z,44.10
2018-02-01T15:33:50.937Z,44.10
2018-02-01T15:36:23.496Z,44.10
2018-02-01T15:38:56.044Z,44.10
2018-02-01T15:41:29.420Z,44.10
2018-02-01T15:44:01.813Z,44.10
2018-02-01T15:46:34.332Z,44.10
2018-02-01T15:49:06.856Z,44.10
2018-02-01T15:51:39.439Z,44.10
2018-02-01T15:54:11.928Z,44.10
2018-02-01T15:56:44.495Z,44.10
2018-02-01T15:59:17.032Z,44.10
2018-02-01T16:01:49.591Z,44.10
2018-02-01T16:04:22.193Z,44.10
2018-02-01T16:06:54.747Z,44.10
2018-02-01T16:09:27.270Z,44.70
2018-02-01T16:11:59.848Z,44.10
2018-02-01T16:14:33.187Z,44.10
2018-02-01T16:17:05.544Z,44.10
2018-02-01T16:19:38.056Z,44.10
2018-02-01T16:22:10.564Z,44.10
2018-02-01T16:24:43.065Z,44.10
2018-02-01T16:27:16.396Z,44.10
2018-02-01T16:29:49.667Z,44.70
2018-02-01T16:32:22.260Z,44.10
2018-02-01T16:34:54.656Z,44.10
2018-02-01T16:37:27.200Z,44.10
2018-02-01T16:40:00.592Z,44.80
2018-02-01T16:42:33.224Z,44.10
2018-02-01T16:45:05.776Z,44.20
2018-02-01T16:47:39.153Z,44.10
2018-02-01T16:50:12.428Z,44.10
2018-02-01T16:52:45.006Z,44.10
2018-02-01T16:55:17.565Z,44.10
2018-02-01T16:57:50.888Z,44.10
2018-02-01T17:00:23.324Z,44.10
2018-02-01T17:02:56.652Z,44.10
2018-02-01T17:05:29.127Z,44.10
2018-02-01T17:08:01.712Z,44.10
2018-02-01T17:10:34.956Z,44.10
2018-02-01T17:13:07.378Z,44.10
2018-02-01T17:15:40.636Z,44.10
2018-02-01T17:18:13.163Z,44.10
2018-02-01T17:20:45.655Z,44.00
2018-02-01T17:23:18.164Z,44.10
2018-02-01T17:25:50.720Z,44.10
2018-02-01T17:28:23.268Z,44.10
2018-02-01T17:30:55.816Z,44.10
2018-02-01T17:33:29.192Z,44.10
2018-02-01T17:36:02.448Z,44.30
2018-02-01T17:38:35.776Z,44.10
2018-02-01T17:41:08.342Z,44.10
2018-02-01T17:43:40.872Z,44.10
2018-02-01T17:46:13.372Z,44.10
2018-02-01T17:48:46.701Z,44.10
2018-02-01T17:51:19.176Z,44.10
2018-02-01T17:53:51.780Z,44.10
2018-02-01T17:56:24.283Z,44.10
2018-02-01T17:58:57.609Z,44.80
2018-02-01T18:01:30.216Z,44.10
2018-02-01T18:04:02.704Z,44.10
2018-02-01T18:06:35.360Z,44.10
2018-02-01T18:09:07.884Z,44.10
2018-02-01T18:11:40.388Z,44.10
2018-02-01T18:14:12.863Z,44.10
2018-02-01T18:16:45.316Z,44.10
2018-02-01T18:19:17.924Z,44.10
2018-02-01T18:21:50.446Z,44.10
2018-02-01T18:24:23.784Z,44.60
2018-02-01T18:26:56.299Z,44.10
2018-02-01T18:29:28.691Z,44.00
2018-02-01T18:32:01.275Z,44.00
2018-02-01T18:34:34.588Z,44.10
2018-02-01T18:37:07.084Z,44.10
2018-02-01T18:39:39.531Z,44.00
2018-02-01T18:42:12.092Z,44.00
2018-02-01T18:44:44.806Z,44.00
2018-02-01T18:47:17.448Z,44.10
2018-02-01T18:49:50.023Z,44.00
2018-02-01T18:52:22.543Z,44.10
2018-02-01T18:54:55.863Z,44.10
2018-02-01T18:57:28.265Z,44.10
2018-02-01T19:00:00.856Z,44.10
2018-02-01T19:02:33.549Z,44.00
2018-02-01T19:05:05.980Z,44.00
2018-02-01T19:07:39.423Z,44.10
2018-02-01T19:10:17.692Z,44.00
2018-02-01T19:12:51.142Z,44.00
2018-02-01T19:15:24.513Z,44.10
2018-02-01T19:17:57.468Z,44.00
2018-02-01T19:20:29.902Z,44.10
2018-02-01T19:23:04.485Z,44.10
2018-02-01T19:25:37.460Z,44.00
2018-02-01T19:28:10.763Z,44.00
2018-02-01T19:30:43.212Z,44.00
2018-02-01T19:33:15.866Z,44.00
2018-02-01T19:35:50.262Z,44.00
2018-02-01T19:38:22.672Z,44.00
2018-02-01T19:40:55.179Z,44.00
2018-02-01T19:43:27.715Z,44.00
2018-02-01T19:46:00.235Z,44.00
2018-02-01T19:48:32.706Z,44.00
2018-02-01T19:51:05.247Z,44.00
2018-02-01T19:53:37.719Z,44.00
2018-02-01T19:56:10.356Z,44.00
2018-02-01T19:58:43.022Z,44.00
2018-02-01T20:01:15.537Z,44.00
2018-02-01T20:03:48.894Z,44.00
2018-02-01T20:06:22.160Z,44.00
2018-02-01T20:08:54.775Z,44.00
2018-02-01T20:11:27.309Z,44.00
2018-02-01T20:13:59.864Z,44.00
2018-02-01T20:16:32.389Z,44.00
2018-02-01T20:19:05.659Z,44.00
2018-02-01T20:21:39.117Z,44.00
2018-02-01T20:24:12.392Z,44.00
2018-02-01T20:26:44.846Z,44.00
2018-02-01T20:29:17.461Z,44.00
2018-02-01T20:31:50.018Z,44.00
2018-02-01T20:34:22.562Z,44.00
2018-02-01T20:36:55.195Z,44.00
2018-02-01T20:39:28.483Z,44.00
2018-02-01T20:42:00.923Z,44.00
2018-02-01T20:44:33.428Z,44.00
2018-02-01T20:47:06.120Z,44.00
2018-02-01T20:49:38.740Z,44.00
2018-02-01T20:52:11.172Z,44.00
2018-02-01T20:54:44.516Z,44.00
2018-02-01T20:57:17.772Z,44.00
2018-02-01T20:59:50.424Z,44.00
2018-02-01T21:02:23.303Z,44.60
2018-02-01T21:04:55.688Z,43.90
2018-02-01T21:07:28.573Z,44.00
2018-02-01T21:10:01.140Z,44.00
2018-02-01T21:12:34.096Z,44.00
2018-02-01T21:15:07.461Z,44.00
2018-02-01T21:17:39.956Z,44.00
2018-02-01T21:20:12.559Z,44.70
2018-02-01T21:22:45.267Z,44.00
2018-02-01T21:25:17.814Z,44.00
2018-02-01T21:27:50.271Z,44.00
2018-02-01T21:30:22.648Z,44.00
2018-02-01T21:32:55.505Z,44.00
2018-02-01T21:35:28.082Z,44.00
2018-02-01T21:38:00.666Z,44.00
2018-02-01T21:40:33.165Z,44.60
2018-02-01T21:43:05.676Z,44.00
2018-02-01T21:45:38.255Z,44.00
2018-02-01T21:48:10.837Z,44.00
2018-02-01T21:50:43.280Z,44.00
2018-02-01T21:53:15.919Z,44.00
2018-02-01T21:55:49.176Z,44.00
2018-02-01T21:58:21.676Z,44.00
2018-02-01T22:00:54.217Z,44.00
2018-02-01T22:03:26.832Z,44.00
2018-02-01T22:05:59.421Z,44.00
2018-02-01T22:08:32.759Z,44.00
2018-02-01T22:11:06.079Z,44.00
2018-02-01T22:13:39.407Z,44.00
2018-02-01T22:16:12.625Z,44.10
2018-02-01T22:18:45.927Z,44.70
2018-02-01T22:21:18.532Z,44.00
2018-02-01T22:23:51.091Z,44.60
2018-02-01T22:26:23.656Z,44.00
2018-02-01T22:28:56.185Z,44.00
2018-02-01T22:31:28.704Z,43.60
2018-02-01T22:34:01.317Z,44.00
2018-02-01T22:36:33.788Z,44.00
2018-02-01T22:39:06.337Z,44.10
2018-02-01T22:41:38.804Z,44.00
2018-02-01T22:44:11.415Z,44.00
2018-02-01T22:46:43.876Z,44.00
2018-02-01T22:49:16.317Z,44.00
2018-02-01T22:51:49.641Z,44.00
2018-02-01T22:54:22.911Z,44.00
2018-02-01T22:56:55.437Z,44.00
2018-02-01T22:59:28.000Z,44.00
2018-02-01T23:02:00.520Z,44.00
2018-02-01T23:04:33.153Z,44.00
2018-02-01T23:07:06.500Z,44.10
2018-02-01T23:09:38.988Z,44.00
2018-02-01T23:12:11.435Z,44.00
2018-02-01T23:14:44.067Z,44.00
2018-02-01T23:17:16.528Z,44.00
2018-02-01T23:19:49.052Z,44.00
2018-02-01T23:22:22.347Z,44.20
2018-02-01T23:24:54.744Z,44.00
2018-02-01T23:27:28.041Z,44.10
2018-02-01T23:30:00.549Z,44.00
2018-02-01T23:32:33.884Z,44.00
2018-02-01T23:35:06.260Z,43.90
2018-02-01T23:37:39.644Z,44.00
2018-02-01T23:40:12.048Z,43.90
2018-02-01T23:42:44.639Z,44.00
2018-02-01T23:45:18.020Z,44.00
2018-02-01T23:47:50.548Z,43.90
2018-02-01T23:50:23.877Z,44.10
2018-02-01T23:52:56.351Z,43.90
2018-02-01T23:55:29.652Z,43.90
2018-02-01T23:58:02.147Z,43.90
